Flight Track Log - Related Links

Times and Time Zones

All times are in EDT time to prevent confusion due to time zone crossing. See the AAL1326 flight status page for this flight to view local times or setup timezone preferences in your user account.

Time Position Orientation Groundspeed Altitude Reporting Facility
EDT Latitude Longitude Course Direction KTS MPH feet Rate Location/Type
Mon 04:53:00 PM 39.4068 -94.5631 46° Northeast  Level FlightAware Approximate
Mon 04:53:42 PM 39.1560 -94.7140 41° Northeast 272 313 6,700  Level FlightAware ADS-B
Mon 04:53:52 PM 39.1510 -94.6960 110° East 300 345 6,900 1,500 Climbing FlightAware ADS-B
Mon 04:54:00 PM 39.4843 -94.4740 41° Northeast  Level FlightAware Approximate
Mon 04:54:02 PM 39.1500 -94.6820 95° East 309 356 7,200  Level FlightAware ADS-B
Mon 04:54:27 PM 39.1680 -94.6360 63° Northeast 317 365 8,600 3,257 Climbing FlightAware ADS-B
Mon 04:54:37 PM 39.1800 -94.6250 35° Northeast 318 366 9,100 2,509 Climbing FlightAware ADS-B
Mon 04:55:22 PM 39.2370 -94.5790 32° Northeast 348 400 10,900 2,471 Climbing FlightAware ADS-B
Mon 04:56:02 PM 39.2960 -94.5310 32° Northeast 376 433 12,600 3,176 Climbing FlightAware ADS-B
Mon 04:56:47 PM 39.3630 -94.4770 32° Northeast 378 435 15,400 3,388 Climbing FlightAware ADS-B
Mon 04:57:27 PM 39.4230 -94.4270 33° Northeast 390 449 17,400 2,965 Climbing FlightAware ADS-B
Mon 04:58:12 PM 39.4900 -94.3700 33° Northeast 400 460 19,600 2,682 Climbing FlightAware ADS-B
Mon 04:58:52 PM 39.5540 -94.3170 33° Northeast 415 478 21,200 2,475 Climbing FlightAware ADS-B
Mon 04:59:32 PM 39.6200 -94.2620 33° Northeast 426 490 22,900 2,400 Climbing FlightAware ADS-B
Mon 05:00:17 PM 39.6800 -94.1730 49° Northeast 442 509 24,600 2,259 Climbing FlightAware ADS-B
Mon 05:00:57 PM 39.7140 -94.0750 66° East 451 519 26,100 2,047 Climbing FlightAware ADS-B
Mon 05:01:42 PM 39.7510 -93.9640 67° East 461 531 27,500 1,765 Climbing FlightAware ADS-B
Mon 05:02:22 PM 39.7850 -93.8610 67° East 472 543 28,600 1,800 Climbing FlightAware ADS-B
Mon 05:03:02 PM 39.8190 -93.7560 67° East 476 548 29,900 2,047 Climbing FlightAware ADS-B
Mon 05:03:47 PM 39.8570 -93.6360 68° East 473 544 31,500 2,118 Climbing FlightAware ADS-B
Mon 05:04:27 PM 39.8920 -93.5290 67° East 469 540 32,900 1,059 Climbing FlightAware ADS-B
Mon 05:05:12 PM 39.9280 -93.4150 68° East 469 540 33,000 71 Climbing FlightAware ADS-B
Mon 05:05:52 PM 39.9610 -93.3130 67° East 468 539 33,000  Level FlightAware ADS-B
Mon 05:06:37 PM 39.9990 -93.1930 68° East 468 539 33,000  Level FlightAware ADS-B
Mon 05:07:17 PM 40.0320 -93.0910 67° East 468 539 33,000  Level FlightAware ADS-B
Mon 05:07:57 PM 40.0660 -92.9840 67° East 468 539 33,000  Level FlightAware ADS-B
Mon 05:08:42 PM 40.1020 -92.8690 68° East 467 537 33,000  Level FlightAware ADS-B
Mon 05:09:22 PM 40.1360 -92.7630 67° East 468 539 33,000  Level FlightAware ADS-B
Mon 05:10:07 PM 40.1720 -92.6460 68° East 467 537 33,000  Level FlightAware ADS-B
Mon 05:10:47 PM 40.2030 -92.5460 68° East 467 537 33,000  Level FlightAware ADS-B
Mon 05:11:32 PM 40.2390 -92.4300 68° East 466 536 33,000  Level FlightAware ADS-B
Mon 05:12:12 PM 40.2730 -92.3190 68° East 466 536 33,000  Level FlightAware ADS-B
Mon 05:12:52 PM 40.3040 -92.2220 67° East 465 535 33,000  Level FlightAware ADS-B
Mon 05:13:32 PM 40.3380 -92.1110 68° East 465 535 33,000  Level FlightAware ADS-B
Mon 05:14:22 PM 40.3780 -91.9830 68° East 465 535 33,000  Level FlightAware ADS-B
Mon 05:15:12 PM 40.4170 -91.8550 68° East 465 535 33,000  Level FlightAware ADS-B
Mon 05:15:57 PM 40.4550 -91.7300 68° East 464 534 33,000  Level FlightAware ADS-B
Mon 05:16:37 PM 40.4860 -91.6290 68° East 463 533 33,000  Level FlightAware ADS-B
Mon 05:17:17 PM 40.5160 -91.5270 69° East 464 534 33,000  Level FlightAware ADS-B
Mon 05:18:02 PM 40.5530 -91.4050 68° East 467 537 33,000  Level FlightAware ADS-B
Mon 05:18:57 PM 40.6030 -91.2610 65° Northeast 464 534 33,000  Level FlightAware ADS-B
Mon 05:19:37 PM 40.6370 -91.1610 66° East 463 533 33,000  Level FlightAware ADS-B
Mon 05:20:32 PM 40.6850 -91.0190 66° East 462 532 33,000 -420 Level FlightAware ADS-B
Mon 05:21:17 PM 40.7250 -90.9020 66° East 459 528 32,300 -971 Descending FlightAware ADS-B
Mon 05:22:17 PM 40.7750 -90.7540 66° East 459 528 31,300 -960 Descending FlightAware ADS-B
Mon 05:22:57 PM 40.8100 -90.6480 66° East 463 533 30,700 -975 Descending FlightAware ADS-B
Mon 05:23:37 PM 40.8430 -90.5500 66° East 464 534 30,000 -988 Descending FlightAware ADS-B
Mon 05:24:22 PM 40.8830 -90.4320 66° East 461 531 29,300 -918 Descending FlightAware ADS-B
Mon 05:25:02 PM 40.9180 -90.3260 66° East 462 532 28,700 -975 Descending FlightAware ADS-B
Mon 05:25:42 PM 40.9520 -90.2220 67° East 461 531 28,000 -988 Descending FlightAware ADS-B
Mon 05:26:27 PM 40.9910 -90.1040 66° East 469 540 27,300 -988 Descending FlightAware ADS-B
Mon 05:27:07 PM 41.0250 -90.0020 66° East 463 533 26,600 -988 Descending FlightAware ADS-B
Mon 05:27:52 PM 41.0630 -89.8860 66° East 459 528 25,900 -988 Descending FlightAware ADS-B
Mon 05:28:32 PM 41.0970 -89.7810 67° East 458 527 25,200 -988 Descending FlightAware ADS-B
Mon 05:29:17 PM 41.1330 -89.6690 67° East 453 521 24,500 -1,059 Descending FlightAware ADS-B
Mon 05:29:57 PM 41.1660 -89.5720 66° East 448 516 23,700 -1,650 Descending FlightAware ADS-B
Mon 05:30:37 PM 41.2080 -89.4680 62° Northeast 437 503 22,300 -2,047 Descending FlightAware ADS-B
Mon 05:31:22 PM 41.2500 -89.3640 62° Northeast 429 494 20,800 -2,047 Descending FlightAware ADS-B
Mon 05:32:02 PM 41.2870 -89.2730 62° Northeast 422 486 19,400 -2,025 Descending FlightAware ADS-B
Mon 05:32:42 PM 41.3230 -89.1820 62° Northeast 413 475 18,100 -1,976 Descending FlightAware ADS-B
Mon 05:33:27 PM 41.3630 -89.0830 62° Northeast 406 467 16,600 -1,976 Descending FlightAware ADS-B
Mon 05:34:07 PM 41.3980 -88.9960 62° Northeast 403 464 15,300 -1,906 Descending FlightAware ADS-B
Mon 05:34:52 PM 41.4380 -88.8970 62° Northeast 394 453 13,900 -1,906 Descending FlightAware ADS-B
Mon 05:35:32 PM 41.4710 -88.8130 62° Northeast 386 444 12,600 -1,906 Descending FlightAware ADS-B
Mon 05:36:17 PM 41.5090 -88.7170 62° Northeast 380 437 11,200 -1,059 Descending FlightAware ADS-B
Mon 05:36:57 PM 41.5410 -88.6360 62° Northeast 375 432 11,100 -75 Descending FlightAware ADS-B
Mon 05:37:37 PM 41.5810 -88.5670 52° Northeast 359 413 11,100 -424 Level FlightAware ADS-B
Mon 05:38:22 PM 41.6290 -88.4890 51° Northeast 336 387 10,500 -706 Descending FlightAware ADS-B
Mon 05:39:02 PM 41.6660 -88.4290 50° Northeast 309 356 10,100 -514 Descending FlightAware ADS-B
Mon 05:39:32 PM 41.6930 -88.3850 51° Northeast 288 331 9,900 -436 Descending FlightAware ADS-B
Mon 05:39:57 PM 41.7120 -88.3530 51° Northeast 276 318 9,700 -1,091 Descending FlightAware ADS-B
Mon 05:40:27 PM 41.7360 -88.3140 50° Northeast 274 315 8,900 -1,527 Descending FlightAware ADS-B
Mon 05:40:52 PM 41.7570 -88.2800 50° Northeast 270 311 8,300 -1,309 Descending FlightAware ADS-B
Mon 05:41:22 PM 41.7790 -88.2430 51° Northeast 264 304 7,700 -1,200 Descending FlightAware ADS-B
Mon 05:41:52 PM 41.8020 -88.2040 52° Northeast 257 296 7,100 -655 Descending FlightAware ADS-B
Mon 05:42:17 PM 41.8200 -88.1750 50° Northeast 236 272 7,100  Level FlightAware ADS-B
Mon 05:42:47 PM 41.8410 -88.1400 51° Northeast 229 264 7,100  Level FlightAware ADS-B
Mon 05:43:12 PM 41.8570 -88.1140 50° Northeast 229 264 7,100  Level FlightAware ADS-B
Mon 05:43:42 PM 41.8830 -88.0930 31° Northeast 216 249 7,100  Level FlightAware ADS-B
Mon 05:44:12 PM 41.9120 -88.0970 354° North 215 247 7,100  Level FlightAware ADS-B
Mon 05:44:22 PM 41.9210 -88.0980 355° North 215 247 7,100  Level FlightAware ADS-B
Mon 05:44:52 PM 41.9500 -88.1030 353° North 215 247 7,100  Level FlightAware ADS-B
Mon 05:45:22 PM 41.9790 -88.1070 354° North 211 243 7,100  Level FlightAware ADS-B
Mon 05:45:47 PM 42.0040 -88.1150 347° North 199 229 7,100  Level FlightAware ADS-B
Mon 05:46:17 PM 42.0260 -88.1360 325° Northwest 197 227 7,100 -545 Level FlightAware ADS-B
Mon 05:46:42 PM 42.0440 -88.1530 325° Northwest 200 230 6,600 -1,200 Descending FlightAware ADS-B
Mon 05:47:12 PM 42.0670 -88.1750 325° Northwest 201 231 6,000 -960 Descending FlightAware ADS-B
Mon 05:47:32 PM 42.0770 -88.1850 323° Northwest 202 232 5,800 -982 Descending FlightAware ADS-B
Mon 05:48:07 PM 42.1090 -88.2170 323° Northwest 202 232 5,100 -1,000 Descending FlightAware ADS-B
Mon 05:48:32 PM 42.1310 -88.2300 336° Northwest 209 241 4,800 -933 Descending FlightAware ADS-B
Mon 05:48:52 PM 42.1480 -88.2200 24° Northeast 208 239 4,400 -933 Descending FlightAware ADS-B
Mon 05:49:17 PM 42.1660 -88.1970 43° Northeast 206 237 4,100 -327 Descending FlightAware ADS-B
Mon 05:49:47 PM 42.1780 -88.1710 58° Northeast 186 214 4,100  Level FlightAware ADS-B
Mon 05:50:07 PM 42.1730 -88.1480 106° East 177 204 4,100  Level FlightAware ADS-B
Mon 05:50:27 PM 42.1630 -88.1310 128° Southeast 168 193 4,100  Level FlightAware ADS-B
Mon 05:50:57 PM 42.1470 -88.1090 134° Southeast 168 193 4,100  Level FlightAware ADS-B
Mon 05:51:27 PM 42.1290 -88.0890 141° Southeast 167 192 4,100 -327 Level FlightAware ADS-B
Mon 05:51:52 PM 42.1130 -88.0710 140° Southeast 172 198 3,800 -764 Descending FlightAware ADS-B
Mon 05:52:22 PM 42.0960 -88.0520 140° Southeast 163 188 3,400 -764 Descending FlightAware ADS-B
Mon 05:52:47 PM 42.0820 -88.0360 140° Southeast 170 196 3,100 -873 Descending FlightAware ADS-B
Mon 05:53:17 PM 42.0630 -88.0140 139° Southeast 164 189 2,600 -982 Descending FlightAware ADS-B
Mon 05:53:42 PM 42.0490 -87.9990 141° Southeast 153 176 2,200 -764 Descending FlightAware ADS-B
Mon 05:54:12 PM 42.0340 -87.9820 140° Southeast 134 154 1,900 -700 Descending FlightAware ADS-B
Mon 05:54:42 PM 42.0200 -87.9670 141° Southeast 130 150 1,500 -720 Descending FlightAware ADS-B
Mon 05:55:02 PM 42.0110 -87.9560 138° Southeast 130 150 1,300 -655 Descending FlightAware ADS-B
Mon 05:55:37 PM 41.9940 -87.9370 140° Southeast 139 160 900 -686 Descending FlightAware ADS-B

Login

Don't have an account? Register now (free) for customized features, flight alerts, and more!